Time;durP1;ratioP1;P1;durP2;ratioP2;P2;SDS_P1;SDS_P2;PMS_P1;PMS_P2;Temp;Humidity;BMP_temperature;BMP_pressure;BME280_temperature;BME280_humidity;BME280_pressure;Samples;Min_cycle;Max_cycle;Signal;HPM_P1;HPM_P2
2022/01/15 00:00:38;;;;;;;45.87;19.83;;;3.50;99.70;;;;;;4905261;29;20453;-73
2022/01/15 00:03:07;;;;;;;52.57;17.80;;;3.40;99.70;;;;;;4916586;29;20541;-74
2022/01/15 00:05:33;;;;;;;53.07;19.50;;;3.30;99.80;;;;;;4900204;29;20459;-72
2022/01/15 00:08:01;;;;;;;39.40;17.60;;;3.30;99.90;;;;;;4900127;29;20429;-73
2022/01/15 00:10:28;;;;;;;43.73;17.40;;;3.20;99.90;;;;;;4917517;29;20438;-74
2022/01/15 00:12:55;;;;;;;65.50;22.13;;;3.20;99.90;;;;;;4899968;29;20438;-74
2022/01/15 00:15:28;;;;;;;45.43;16.00;;;3.20;99.90;;;;;;4916713;29;20418;-73
2022/01/15 00:18:00;;;;;;;38.87;17.00;;;3.10;99.90;;;;;;4916738;29;20422;-73
2022/01/15 00:20:28;;;;;;;41.20;15.97;;;3.10;99.90;;;;;;4917372;29;20430;-73
2022/01/15 00:22:57;;;;;;;49.97;17.67;;;3.00;99.90;;;;;;4917073;29;20448;-74
2022/01/15 00:25:24;;;;;;;41.67;15.90;;;3.00;99.90;;;;;;4916477;29;20538;-73
2022/01/15 00:27:50;;;;;;;41.67;16.30;;;3.00;99.90;;;;;;4917028;29;20406;-72
2022/01/15 00:30:17;;;;;;;46.73;18.07;;;3.00;99.90;;;;;;4899819;29;20411;-73
2022/01/15 00:32:43;;;;;;;46.00;18.93;;;2.90;99.90;;;;;;4884471;29;20517;-73
2022/01/15 00:35:12;;;;;;;49.80;19.33;;;2.90;99.90;;;;;;4915795;29;20578;-73
2022/01/15 00:37:39;;;;;;;50.63;19.33;;;2.90;99.90;;;;;;4899232;29;20422;-73
2022/01/15 00:40:08;;;;;;;51.17;19.20;;;2.90;99.90;;;;;;4916328;29;20422;-73
2022/01/15 00:42:35;;;;;;;50.90;17.50;;;2.90;99.90;;;;;;4899785;29;20446;-73
2022/01/15 00:45:02;;;;;;;42.57;20.43;;;2.90;99.90;;;;;;4915385;29;20446;-73
2022/01/15 00:47:31;;;;;;;38.47;16.00;;;2.90;99.90;;;;;;4915033;29;20415;-74
2022/01/15 00:49:58;;;;;;;52.93;18.10;;;2.90;99.90;;;;;;4916717;29;20420;-74
2022/01/15 00:52:24;;;;;;;46.87;17.40;;;2.90;99.90;;;;;;4916838;29;20418;-74
2022/01/15 00:54:49;;;;;;;50.70;18.07;;;2.90;99.90;;;;;;4898871;29;20455;-72
2022/01/15 00:57:15;;;;;;;48.10;16.57;;;2.90;99.90;;;;;;4916107;29;20169;-72
2022/01/15 00:59:44;;;;;;;46.90;15.73;;;2.90;99.90;;;;;;4899618;29;20216;-72
2022/01/15 01:02:13;;;;;;;57.93;20.57;;;2.90;99.90;;;;;;4916859;29;20720;-75
2022/01/15 01:04:39;;;;;;;40.50;15.93;;;3.00;99.90;;;;;;4883652;29;20446;-73
2022/01/15 01:07:05;;;;;;;41.47;16.73;;;3.00;99.90;;;;;;4916616;29;20450;-73
2022/01/15 01:09:50;;;;;;;51.27;17.80;;;3.10;99.90;;;;;;4916661;29;20592;-73
2022/01/15 01:12:27;;;;;;;41.83;15.53;;;3.00;99.90;;;;;;4916409;29;20399;-73
2022/01/15 01:20:34;;;;;;;38.57;15.97;;;2.90;99.90;;;;;;4898973;29;20418;-73
2022/01/15 01:23:00;;;;;;;31.77;14.70;;;2.90;99.90;;;;;;4899793;29;20505;-74
2022/01/15 01:25:34;;;;;;;34.50;12.70;;;2.80;99.90;;;;;;4916444;29;20565;-73
2022/01/15 01:28:07;;;;;;;37.03;13.83;;;2.80;99.90;;;;;;4916488;29;20415;-74
2022/01/15 01:30:41;;;;;;;42.40;15.10;;;2.80;99.90;;;;;;4915397;29;20903;-73
2022/01/15 01:36:16;;;;;;;33.57;13.13;;;2.80;99.90;;;;;;4920284;29;20478;-74
2022/01/15 01:41:14;;;;;;;33.03;12.77;;;2.80;99.90;;;;;;4920050;29;20430;-74
2022/01/15 01:43:46;;;;;;;28.03;11.63;;;2.80;99.90;;;;;;4915573;29;20438;-73
2022/01/15 01:46:21;;;;;;;41.77;12.90;;;2.80;99.90;;;;;;4882224;29;20837;-74
2022/01/15 01:48:47;;;;;;;35.97;12.90;;;2.80;99.90;;;;;;4915792;29;20406;-73
2022/01/15 01:51:33;;;;;;;32.27;13.57;;;2.80;99.90;;;;;;4914587;29;20418;-73
2022/01/15 01:54:05;;;;;;;38.73;13.70;;;2.70;99.90;;;;;;4915376;29;20434;-73
2022/01/15 01:56:31;;;;;;;44.67;15.53;;;2.70;99.90;;;;;;4915090;29;20442;-73
2022/01/15 01:58:57;;;;;;;37.77;15.47;;;2.60;99.90;;;;;;4899165;29;20452;-73
2022/01/15 02:01:24;;;;;;;39.50;13.47;;;2.70;99.90;;;;;;4923198;29;20513;-74
2022/01/15 02:03:50;;;;;;;41.07;13.10;;;2.70;99.90;;;;;;4918954;29;20951;-74
2022/01/15 02:06:17;;;;;;;35.20;15.70;;;2.70;99.90;;;;;;4916592;29;20459;-74
2022/01/15 02:08:44;;;;;;;40.63;16.40;;;2.60;99.90;;;;;;4915587;29;20415;-73
2022/01/15 02:11:10;;;;;;;30.97;12.40;;;2.60;99.90;;;;;;4915715;29;20421;-73
2022/01/15 02:13:39;;;;;;;44.50;14.90;;;2.60;99.90;;;;;;4899512;29;20619;-73
2022/01/15 02:16:05;;;;;;;40.60;12.97;;;2.50;99.90;;;;;;4915337;29;20426;-73
2022/01/15 02:18:31;;;;;;;32.80;13.10;;;2.50;99.90;;;;;;4898486;29;20422;-74
2022/01/15 02:23:50;;;;;;;35.50;11.80;;;2.40;99.90;;;;;;4905016;29;20557;-73
2022/01/15 02:26:20;;;;;;;33.00;13.20;;;2.40;99.90;;;;;;4897696;29;20470;-74
2022/01/15 02:28:53;;;;;;;25.37;11.37;;;2.40;99.90;;;;;;4898019;29;20498;-73
2022/01/15 02:31:20;;;;;;;33.70;12.70;;;2.40;99.90;;;;;;4915096;29;20506;-73
2022/01/15 02:33:49;;;;;;;27.53;12.00;;;2.40;99.90;;;;;;4915204;29;20963;-73
2022/01/15 02:36:20;;;;;;;24.70;10.40;;;2.30;99.90;;;;;;4914339;29;20437;-73
2022/01/15 02:38:46;;;;;;;27.03;10.63;;;2.30;99.90;;;;;;4914367;29;20414;-73
2022/01/15 02:41:13;;;;;;;22.97;10.30;;;2.30;99.90;;;;;;4915174;29;20417;-73
2022/01/15 02:43:39;;;;;;;28.13;11.10;;;2.20;99.90;;;;;;4898008;29;20497;-73
2022/01/15 02:46:35;;;;;;;30.47;12.30;;;2.20;99.90;;;;;;4897540;29;20461;-74
2022/01/15 02:49:05;;;;;;;30.40;12.33;;;2.20;99.90;;;;;;4897703;29;20430;-73
2022/01/15 02:51:34;;;;;;;24.50;10.73;;;2.20;99.90;;;;;;4915331;29;20924;-73
2022/01/15 02:54:00;;;;;;;21.93;9.83;;;2.20;99.90;;;;;;4914772;29;20815;-73
2022/01/15 02:56:29;;;;;;;25.53;10.50;;;2.20;99.90;;;;;;4915722;29;20486;-73
2022/01/15 02:58:55;;;;;;;26.53;12.60;;;2.20;99.90;;;;;;4916656;29;20809;-73
2022/01/15 03:01:21;;;;;;;25.23;9.90;;;2.20;99.90;;;;;;4915916;29;20419;-73
2022/01/15 03:03:47;;;;;;;28.13;10.97;;;2.20;99.90;;;;;;4917559;29;20578;-73
2022/01/15 03:06:16;;;;;;;32.73;11.37;;;2.10;99.90;;;;;;4901256;29;20504;-73
2022/01/15 03:08:43;;;;;;;23.70;10.83;;;2.10;99.90;;;;;;4916955;29;20455;-73
2022/01/15 03:11:10;;;;;;;23.23;10.50;;;2.10;99.90;;;;;;4917029;29;20414;-73
2022/01/15 03:13:40;;;;;;;24.40;11.10;;;2.10;99.90;;;;;;4884097;29;20469;-73
2022/01/15 03:16:14;;;;;;;24.23;10.33;;;2.10;99.90;;;;;;4916276;29;20505;-73
2022/01/15 03:18:40;;;;;;;20.50;10.17;;;2.20;99.90;;;;;;4899522;29;20461;-73
2022/01/15 03:21:06;;;;;;;21.67;10.50;;;2.20;99.90;;;;;;4916913;29;20463;-73
2022/01/15 03:23:32;;;;;;;25.70;10.00;;;2.20;99.90;;;;;;4916199;29;20455;-73
2022/01/15 03:25:57;;;;;;;23.13;10.10;;;2.20;99.90;;;;;;4916317;29;20199;-73
2022/01/15 03:28:23;;;;;;;20.03;9.37;;;2.20;99.90;;;;;;4899177;29;20234;-73
2022/01/15 03:30:49;;;;;;;30.63;11.63;;;2.20;99.90;;;;;;4899806;29;20980;-73
2022/01/15 03:33:15;;;;;;;28.43;10.10;;;2.20;99.90;;;;;;4914658;29;20601;-73
2022/01/15 03:35:41;;;;;;;22.80;9.07;;;2.20;99.90;;;;;;4915879;29;20916;-73
2022/01/15 03:38:07;;;;;;;22.77;9.50;;;2.20;99.90;;;;;;4916977;29;20417;-73
2022/01/15 03:40:34;;;;;;;20.60;9.10;;;2.20;99.90;;;;;;4916364;29;20229;-73
2022/01/15 03:43:01;;;;;;;20.57;8.47;;;2.20;99.90;;;;;;4916047;29;20451;-73
2022/01/15 03:45:27;;;;;;;23.17;10.90;;;2.20;99.90;;;;;;4898932;29;20465;-73
2022/01/15 03:47:53;;;;;;;22.33;10.07;;;2.20;99.90;;;;;;4899213;29;20521;-72
2022/01/15 03:50:19;;;;;;;14.47;7.90;;;2.20;99.90;;;;;;4898962;29;20846;-72
2022/01/15 03:52:45;;;;;;;31.57;10.80;;;2.10;99.90;;;;;;4899294;29;20784;-71
2022/01/15 03:55:13;;;;;;;31.43;10.03;;;2.10;99.90;;;;;;4915799;29;20505;-72
2022/01/15 03:57:39;;;;;;;28.20;11.53;;;2.10;99.90;;;;;;4915899;29;20426;-72
2022/01/15 04:00:08;;;;;;;24.20;10.27;;;2.10;99.90;;;;;;4916109;29;20423;-72
2022/01/15 04:02:38;;;;;;;28.60;11.53;;;2.10;99.90;;;;;;4916071;29;20478;-72
2022/01/15 04:05:04;;;;;;;31.70;10.10;;;2.20;99.90;;;;;;4915765;29;20973;-73
2022/01/15 04:07:29;;;;;;;24.33;9.73;;;2.20;99.90;;;;;;4916242;29;20509;-72
2022/01/15 04:09:55;;;;;;;25.73;9.63;;;2.20;99.90;;;;;;4915897;29;20520;-72
2022/01/15 04:12:21;;;;;;;22.23;10.33;;;2.20;99.90;;;;;;4915612;29;20277;-72
2022/01/15 04:14:46;;;;;;;35.63;12.03;;;2.20;99.90;;;;;;4914685;29;20210;-73
2022/01/15 04:17:12;;;;;;;29.57;10.53;;;2.10;99.90;;;;;;4915330;29;20341;-73
2022/01/15 04:19:40;;;;;;;30.43;10.20;;;2.10;99.90;;;;;;4915789;29;20545;-73
2022/01/15 04:22:06;;;;;;;30.50;10.37;;;2.20;99.90;;;;;;4915353;29;20175;-73
2022/01/15 04:24:32;;;;;;;34.77;13.07;;;2.20;99.90;;;;;;4915363;29;20449;-72
2022/01/15 04:26:57;;;;;;;30.13;10.73;;;2.20;99.90;;;;;;4914962;29;20462;-73
2022/01/15 04:29:23;;;;;;;19.37;9.77;;;2.20;99.90;;;;;;4898633;29;20210;-73
2022/01/15 04:31:51;;;;;;;28.00;10.20;;;2.20;99.90;;;;;;4915113;29;20265;-72
2022/01/15 04:34:24;;;;;;;15.17;8.53;;;2.20;99.90;;;;;;4915443;29;20632;-72
2022/01/15 04:36:51;;;;;;;19.10;7.03;;;2.20;99.90;;;;;;4914920;29;20519;-73
2022/01/15 04:39:17;;;;;;;15.07;8.03;;;2.10;99.90;;;;;;4915835;29;20529;-72
2022/01/15 04:41:43;;;;;;;18.33;8.43;;;2.10;99.90;;;;;;4915101;29;20498;-72
2022/01/15 04:44:09;;;;;;;16.17;9.00;;;2.10;99.90;;;;;;4915445;29;20202;-72
2022/01/15 04:46:36;;;;;;;14.40;6.50;;;2.10;99.90;;;;;;4914655;29;20682;-72
2022/01/15 04:49:02;;;;;;;13.97;7.17;;;2.00;99.90;;;;;;4898813;29;20457;-72
2022/01/15 04:51:28;;;;;;;14.73;8.07;;;2.00;99.90;;;;;;4918697;29;20407;-72
2022/01/15 04:53:54;;;;;;;21.83;7.93;;;2.00;99.90;;;;;;4921387;29;21010;-72
2022/01/15 04:56:20;;;;;;;16.90;9.40;;;2.00;99.90;;;;;;4920277;29;20619;-73
2022/01/15 04:58:46;;;;;;;15.40;8.63;;;2.00;99.90;;;;;;4898679;29;20179;-73
2022/01/15 05:01:11;;;;;;;21.37;8.20;;;2.00;99.90;;;;;;4913247;29;20249;-73
2022/01/15 05:03:37;;;;;;;16.00;8.10;;;2.00;99.90;;;;;;4897915;29;20549;-73
2022/01/15 05:06:03;;;;;;;16.83;9.00;;;2.00;99.90;;;;;;4914630;29;20249;-72
2022/01/15 05:08:29;;;;;;;17.63;8.87;;;2.00;99.90;;;;;;4914798;29;20171;-72
2022/01/15 05:10:58;;;;;;;22.17;10.20;;;2.00;99.90;;;;;;4914974;29;20182;-73
2022/01/15 05:13:28;;;;;;;15.30;8.13;;;2.10;99.90;;;;;;4914467;29;20442;-73
2022/01/15 05:15:54;;;;;;;16.23;8.77;;;2.00;99.90;;;;;;4914469;29;20423;-73
2022/01/15 05:18:19;;;;;;;19.17;8.40;;;2.00;99.90;;;;;;4914193;29;20419;-72
2022/01/15 05:20:45;;;;;;;11.20;7.63;;;2.00;99.90;;;;;;4897283;29;20422;-72
2022/01/15 05:23:12;;;;;;;16.70;9.60;;;2.00;99.90;;;;;;4913109;29;20202;-72
2022/01/15 05:25:38;;;;;;;18.43;8.43;;;2.00;99.90;;;;;;4914173;29;20472;-72
2022/01/15 05:28:04;;;;;;;12.37;7.40;;;1.90;99.90;;;;;;4914217;29;20410;-72
2022/01/15 05:30:31;;;;;;;11.23;7.03;;;1.90;99.90;;;;;;4914606;29;20410;-73
2022/01/15 05:32:58;;;;;;;16.30;8.67;;;1.90;99.90;;;;;;4914438;29;20415;-73
2022/01/15 05:35:26;;;;;;;13.33;7.70;;;1.90;99.90;;;;;;4914166;29;20856;-71
2022/01/15 05:37:53;;;;;;;14.00;7.90;;;1.90;99.90;;;;;;4914430;29;20434;-73
2022/01/15 05:40:19;;;;;;;14.13;8.00;;;1.90;99.90;;;;;;4914759;29;20876;-72
2022/01/15 05:42:46;;;;;;;13.93;7.67;;;1.90;99.90;;;;;;4897336;29;20430;-72
2022/01/15 05:45:12;;;;;;;14.87;8.37;;;1.80;99.90;;;;;;4914003;29;20233;-72
2022/01/15 05:47:38;;;;;;;16.40;9.17;;;1.80;99.90;;;;;;4897261;29;20979;-71
2022/01/15 05:50:04;;;;;;;17.50;8.30;;;1.80;99.90;;;;;;4914410;29;20414;-72
2022/01/15 05:52:30;;;;;;;16.37;8.83;;;1.80;99.90;;;;;;4914378;29;20478;-72
2022/01/15 05:54:55;;;;;;;18.20;7.47;;;1.80;99.90;;;;;;4897076;29;20546;-72
2022/01/15 05:57:21;;;;;;;15.90;7.77;;;1.80;99.90;;;;;;4914046;29;20602;-72
2022/01/15 05:59:47;;;;;;;17.80;8.23;;;1.80;99.90;;;;;;4914201;29;20518;-72
2022/01/15 06:02:12;;;;;;;15.93;7.90;;;1.80;99.90;;;;;;4898916;29;20640;-72
2022/01/15 06:04:38;;;;;;;13.30;6.97;;;1.80;99.90;;;;;;4899300;29;20193;-73
2022/01/15 06:07:04;;;;;;;13.40;7.87;;;1.80;99.90;;;;;;4916576;29;20767;-73
2022/01/15 06:09:29;;;;;;;16.20;8.13;;;1.80;99.90;;;;;;4916422;29;20158;-73
2022/01/15 06:11:56;;;;;;;16.40;9.40;;;1.80;99.90;;;;;;4899433;29;20688;-73
2022/01/15 06:14:22;;;;;;;16.50;8.83;;;1.80;99.90;;;;;;4896978;29;20225;-73
2022/01/15 06:16:48;;;;;;;19.10;9.40;;;1.80;99.90;;;;;;4914151;29;20430;-73
2022/01/15 06:19:14;;;;;;;13.60;7.90;;;1.80;99.90;;;;;;4912551;29;20485;-73
2022/01/15 06:21:40;;;;;;;13.77;7.90;;;1.80;99.90;;;;;;4914114;29;20426;-73
2022/01/15 06:24:06;;;;;;;15.77;8.50;;;1.80;99.90;;;;;;4913974;29;20241;-73
2022/01/15 06:26:31;;;;;;;16.07;9.50;;;1.80;99.90;;;;;;4913295;29;20289;-73
2022/01/15 06:28:57;;;;;;;14.37;9.37;;;1.80;99.90;;;;;;4913788;29;20411;-73
2022/01/15 06:31:23;;;;;;;17.60;8.70;;;1.80;99.90;;;;;;4914717;29;20540;-72
2022/01/15 06:33:48;;;;;;;13.80;8.40;;;1.80;99.90;;;;;;4897968;29;20191;-73
2022/01/15 06:36:14;;;;;;;15.40;8.60;;;1.90;99.90;;;;;;4914768;29;20699;-73
2022/01/15 06:38:40;;;;;;;17.00;9.10;;;1.90;99.90;;;;;;4901576;29;20181;-73
2022/01/15 06:41:05;;;;;;;19.73;8.30;;;1.90;99.90;;;;;;4918869;29;20170;-72
2022/01/15 06:43:31;;;;;;;17.77;8.50;;;1.80;99.90;;;;;;4926562;29;20214;-72
2022/01/15 06:45:56;;;;;;;17.27;8.00;;;1.80;99.90;;;;;;4900139;29;20303;-74
2022/01/15 06:48:22;;;;;;;16.20;8.10;;;1.80;99.90;;;;;;4900936;29;20179;-71
2022/01/15 06:50:48;;;;;;;15.30;8.60;;;1.80;99.90;;;;;;4917501;29;20266;-74
2022/01/15 06:53:14;;;;;;;18.77;8.00;;;1.80;99.90;;;;;;4917525;29;20217;-72
2022/01/15 06:55:40;;;;;;;18.93;10.57;;;1.80;99.90;;;;;;4900164;29;20189;-72
2022/01/15 06:58:05;;;;;;;17.37;10.17;;;1.80;99.90;;;;;;4917638;29;20170;-72
2022/01/15 07:00:31;;;;;;;16.97;8.70;;;1.80;99.90;;;;;;4900434;29;20980;-74
2022/01/15 07:03:00;;;;;;;20.30;10.07;;;1.90;99.90;;;;;;4900242;29;20170;-73
2022/01/15 07:05:26;;;;;;;19.30;10.40;;;1.90;99.90;;;;;;4916751;29;20236;-73
2022/01/15 07:07:52;;;;;;;18.00;8.17;;;1.90;99.90;;;;;;4900148;29;20904;-72
2022/01/15 07:10:18;;;;;;;14.03;9.37;;;1.90;99.90;;;;;;4916848;29;20842;-72
2022/01/15 07:12:44;;;;;;;23.67;10.73;;;1.90;99.90;;;;;;4900141;29;20411;-72
2022/01/15 07:15:11;;;;;;;15.10;8.20;;;1.90;99.90;;;;;;4899598;29;20497;-72
2022/01/15 07:17:42;;;;;;;12.10;8.03;;;2.00;99.90;;;;;;4900208;29;20222;-72
2022/01/15 07:20:09;;;;;;;14.07;8.50;;;2.00;99.90;;;;;;4900792;29;20410;-73
2022/01/15 07:22:34;;;;;;;13.63;7.53;;;2.00;99.90;;;;;;4917357;29;20410;-73
2022/01/15 07:25:00;;;;;;;20.63;9.30;;;2.00;99.90;;;;;;4918152;29;20443;-72
2022/01/15 07:27:26;;;;;;;16.10;9.13;;;2.00;99.90;;;;;;4892265;29;20253;-72
2022/01/15 07:29:52;;;;;;;21.00;9.20;;;2.00;99.90;;;;;;4917056;29;20258;-72
2022/01/15 07:32:17;;;;;;;16.47;8.80;;;1.90;99.90;;;;;;4917242;29;20891;-72
2022/01/15 07:34:43;;;;;;;15.00;9.67;;;1.90;99.90;;;;;;4899531;29;20294;-72
2022/01/15 07:37:09;;;;;;;17.03;8.30;;;1.90;99.90;;;;;;4899377;29;20486;-72
2022/01/15 07:39:35;;;;;;;15.50;8.00;;;2.00;99.90;;;;;;4916831;29;20540;-72
2022/01/15 07:42:01;;;;;;;17.30;8.57;;;2.00;99.90;;;;;;4890100;29;20209;-72
2022/01/15 07:44:28;;;;;;;18.20;8.70;;;2.00;99.90;;;;;;4899712;29;20574;-72
2022/01/15 07:46:54;;;;;;;15.00;8.53;;;2.00;99.90;;;;;;4916223;29;20911;-72
2022/01/15 07:49:20;;;;;;;17.00;7.80;;;2.00;99.90;;;;;;4917227;29;20838;-73
2022/01/15 07:51:46;;;;;;;15.60;9.10;;;2.10;99.90;;;;;;4915130;29;21023;-73
2022/01/15 07:54:12;;;;;;;19.00;9.70;;;2.10;99.90;;;;;;4921461;29;20443;-73
2022/01/15 07:56:37;;;;;;;18.17;11.03;;;2.00;99.90;;;;;;4915989;29;20234;-73
2022/01/15 07:59:03;;;;;;;17.60;8.93;;;2.10;99.90;;;;;;4916871;29;20178;-73
2022/01/15 08:01:29;;;;;;;18.70;9.83;;;2.10;99.90;;;;;;4916144;29;20197;-71
2022/01/15 08:03:55;;;;;;;18.80;7.97;;;2.10;99.90;;;;;;4910338;29;20489;-74
2022/01/15 08:06:21;;;;;;;12.43;7.80;;;2.10;99.90;;;;;;4927930;29;20513;-70
2022/01/15 08:08:47;;;;;;;14.83;8.50;;;2.10;99.90;;;;;;4908685;29;21014;-71
2022/01/15 08:11:12;;;;;;;14.07;8.10;;;2.10;99.90;;;;;;4924927;29;20171;-70
2022/01/15 08:13:38;;;;;;;18.70;8.10;;;2.10;99.90;;;;;;4913162;29;20691;-69
2022/01/15 08:16:04;;;;;;;15.03;7.60;;;2.20;99.90;;;;;;4928512;29;20209;-71
2022/01/15 08:18:32;;;;;;;15.90;8.60;;;2.10;99.90;;;;;;4919222;29;20205;-71
2022/01/15 08:20:58;;;;;;;18.50;8.97;;;2.10;99.90;;;;;;4917402;29;20438;-71
2022/01/15 08:23:24;;;;;;;16.90;7.90;;;2.20;99.90;;;;;;4899624;29;20438;-70
2022/01/15 08:25:50;;;;;;;17.93;8.63;;;2.20;99.90;;;;;;4927977;29;20458;-70
2022/01/15 08:28:17;;;;;;;14.53;7.33;;;2.20;99.90;;;;;;4899990;29;20434;-70
2022/01/15 08:30:43;;;;;;;17.90;7.93;;;2.30;99.90;;;;;;4900696;29;20182;-71
2022/01/15 08:33:09;;;;;;;13.90;8.10;;;2.20;99.90;;;;;;4927867;29;20460;-72
2022/01/15 08:35:35;;;;;;;16.43;8.33;;;2.30;99.90;;;;;;4880880;29;20415;-73
2022/01/15 08:38:03;;;;;;;13.40;7.80;;;2.30;99.90;;;;;;4913873;29;20265;-71
2022/01/15 08:40:32;;;;;;;12.43;7.53;;;2.30;99.90;;;;;;4918364;29;20252;-72
2022/01/15 08:42:58;;;;;;;15.70;7.00;;;2.40;99.90;;;;;;4905111;29;20437;-73
2022/01/15 08:45:26;;;;;;;14.17;7.30;;;2.40;99.90;;;;;;4900094;29;20473;-72
2022/01/15 08:47:52;;;;;;;13.37;6.70;;;2.40;99.90;;;;;;4916631;29;20426;-72
2022/01/15 08:50:18;;;;;;;21.83;11.33;;;2.50;99.90;;;;;;4910940;29;20445;-72
2022/01/15 08:52:44;;;;;;;12.80;6.87;;;2.50;99.90;;;;;;4916903;29;20399;-72
2022/01/15 08:55:10;;;;;;;11.10;7.70;;;2.50;99.90;;;;;;4931223;29;20221;-70
2022/01/15 08:57:36;;;;;;;11.57;7.00;;;2.50;99.90;;;;;;4915869;29;20437;-72
2022/01/15 09:00:05;;;;;;;19.40;7.80;;;2.50;99.90;;;;;;4912738;29;20174;-72
2022/01/15 09:02:31;;;;;;;15.30;7.70;;;2.50;99.90;;;;;;4901214;29;20935;-70
2022/01/15 09:04:56;;;;;;;13.73;6.70;;;2.60;99.90;;;;;;4913449;29;20451;-73
2022/01/15 09:07:22;;;;;;;7.70;5.73;;;2.70;99.90;;;;;;4900676;29;20213;-72
2022/01/15 09:09:48;;;;;;;10.70;6.87;;;2.70;99.90;;;;;;4918641;29;20169;-71
2022/01/15 09:12:15;;;;;;;10.23;5.03;;;2.70;99.90;;;;;;4906905;29;20179;-71
2022/01/15 09:14:41;;;;;;;14.13;7.20;;;2.70;99.90;;;;;;4915297;29;20266;-71
2022/01/15 09:17:07;;;;;;;13.50;6.83;;;2.70;99.90;;;;;;4895656;29;20900;-72
2022/01/15 09:19:33;;;;;;;11.90;6.33;;;2.70;99.90;;;;;;4931319;29;20278;-72
2022/01/15 09:22:00;;;;;;;9.50;6.40;;;2.80;99.90;;;;;;4914784;29;20171;-72
2022/01/15 09:24:25;;;;;;;9.90;6.10;;;2.80;99.90;;;;;;4916241;29;20613;-73
2022/01/15 09:32:07;;;;;;;13.07;6.40;;;3.00;99.90;;;;;;4897529;29;20424;-72
2022/01/15 09:34:34;;;;;;;14.00;6.90;;;3.10;99.90;;;;;;4911979;29;20702;-71
2022/01/15 09:37:01;;;;;;;10.33;5.40;;;3.10;99.90;;;;;;4897249;29;20434;-71
2022/01/15 09:39:27;;;;;;;10.90;7.30;;;3.20;99.70;;;;;;4915372;29;20441;-71
2022/01/15 09:41:55;;;;;;;9.97;6.50;;;3.10;99.40;;;;;;4931802;29;20521;-72
2022/01/15 09:44:25;;;;;;;12.20;7.70;;;3.10;99.70;;;;;;4914379;29;20721;-72
2022/01/15 09:46:51;;;;;;;9.67;6.40;;;3.10;99.80;;;;;;4899780;29;20490;-72
2022/01/15 09:49:19;;;;;;;10.27;6.07;;;3.00;99.90;;;;;;4913106;29;20437;-72
2022/01/15 09:51:46;;;;;;;11.90;7.20;;;3.10;99.90;;;;;;4916705;29;20422;-70
2022/01/15 09:54:16;;;;;;;11.27;6.10;;;3.00;99.60;;;;;;4923113;29;20816;-71
2022/01/15 09:56:42;;;;;;;8.73;6.20;;;3.00;99.90;;;;;;4905541;29;20438;-72
2022/01/15 09:59:08;;;;;;;12.00;6.90;;;3.00;99.90;;;;;;4915757;29;20426;-72
2022/01/15 10:01:33;;;;;;;11.70;6.50;;;3.10;99.90;;;;;;4915420;29;20469;-71
2022/01/15 10:04:00;;;;;;;14.27;6.47;;;3.20;99.90;;;;;;4916790;29;20289;-72
2022/01/15 10:06:26;;;;;;;14.20;6.80;;;3.20;99.80;;;;;;4897200;29;20226;-72
2022/01/15 10:09:21;;;;;;;9.93;5.63;;;3.30;99.90;;;;;;4908656;29;20461;-74
2022/01/15 10:11:53;;;;;;;11.30;5.97;;;3.40;99.80;;;;;;4916954;29;20441;-72
2022/01/15 10:14:30;;;;;;;9.37;6.33;;;3.30;98.80;;;;;;4921102;29;20450;-72
2022/01/15 10:16:58;;;;;;;11.80;6.80;;;3.30;98.70;;;;;;4916778;29;20517;-71
2022/01/15 10:19:35;;;;;;;9.40;5.80;;;3.30;99.10;;;;;;4901619;29;20415;-71
2022/01/15 10:22:22;;;;;;;8.07;5.30;;;3.30;98.90;;;;;;4901735;29;20438;-73
2022/01/15 10:24:59;;;;;;;10.27;5.60;;;3.30;98.90;;;;;;4919543;29;20845;-72
2022/01/15 10:27:37;;;;;;;10.03;5.93;;;3.30;99.20;;;;;;4921593;29;20484;-71
2022/01/15 10:30:10;;;;;;;9.67;6.10;;;3.40;98.70;;;;;;4920174;29;20804;-70
2022/01/15 10:32:52;;;;;;;9.80;5.67;;;3.40;98.50;;;;;;4921019;29;20843;-72
2022/01/15 10:35:19;;;;;;;12.30;5.20;;;3.40;98.00;;;;;;4919671;29;20825;-71
2022/01/15 10:38:09;;;;;;;11.17;5.67;;;3.30;98.20;;;;;;4920159;29;20443;-73
2022/01/15 10:40:42;;;;;;;11.13;5.47;;;3.30;98.60;;;;;;4914652;29;20742;-70
2022/01/15 10:43:10;;;;;;;10.80;6.50;;;3.30;98.90;;;;;;4919178;29;20820;-70
2022/01/15 10:45:56;;;;;;;8.33;5.43;;;3.30;98.50;;;;;;4901877;29;20451;-71
2022/01/15 10:48:25;;;;;;;9.63;5.23;;;3.40;98.80;;;;;;4912413;29;20624;-71
2022/01/15 10:50:56;;;;;;;10.33;4.73;;;3.40;98.50;;;;;;4921251;29;20430;-71
2022/01/15 10:53:36;;;;;;;11.40;6.30;;;3.40;98.70;;;;;;4900057;29;20537;-71
2022/01/15 10:56:04;;;;;;;11.37;6.07;;;3.50;98.50;;;;;;4901484;29;20443;-72
2022/01/15 10:58:30;;;;;;;12.20;6.30;;;3.50;98.20;;;;;;4900291;29;20430;-72
2022/01/15 11:00:56;;;;;;;8.73;6.03;;;3.60;98.80;;;;;;4900157;29;20815;-72
2022/01/15 11:03:24;;;;;;;9.77;6.20;;;3.60;98.30;;;;;;4901303;29;20473;-72
2022/01/15 11:05:51;;;;;;;9.27;5.63;;;3.60;98.10;;;;;;4916093;29;20261;-71
2022/01/15 11:08:22;;;;;;;8.37;5.03;;;3.70;98.10;;;;;;4902425;29;20467;-71
2022/01/15 11:11:00;;;;;;;9.20;6.10;;;3.70;98.00;;;;;;4923333;29;20434;-73
2022/01/15 11:13:28;;;;;;;10.63;6.00;;;3.70;97.60;;;;;;4920866;29;20536;-71
2022/01/15 11:15:59;;;;;;;12.20;6.40;;;3.70;97.90;;;;;;4886767;29;20428;-71
2022/01/15 11:18:31;;;;;;;10.37;5.37;;;3.70;97.80;;;;;;4903418;29;20434;-71
2022/01/15 11:21:02;;;;;;;11.73;6.10;;;3.80;97.80;;;;;;4903089;29;20430;-72
2022/01/15 11:23:30;;;;;;;10.67;5.93;;;3.90;97.90;;;;;;4902585;29;20454;-72
2022/01/15 11:25:59;;;;;;;11.20;5.10;;;3.90;97.60;;;;;;4919275;29;20490;-70
2022/01/15 11:28:28;;;;;;;18.03;9.80;;;3.90;97.70;;;;;;4920559;29;20437;-73
2022/01/15 11:31:03;;;;;;;10.00;5.57;;;4.10;99.40;;;;;;4908635;29;20489;-73
2022/01/15 11:33:33;;;;;;;8.67;5.63;;;4.20;97.40;;;;;;4927036;29;20468;-73
2022/01/15 11:36:01;;;;;;;15.57;6.90;;;4.30;97.10;;;;;;4903725;29;20435;-74
2022/01/15 11:38:43;;;;;;;8.13;4.90;;;4.20;97.00;;;;;;4905236;29;20415;-72
2022/01/15 11:41:28;;;;;;;7.57;5.10;;;4.20;96.70;;;;;;4920383;29;20900;-71
2022/01/15 11:44:14;;;;;;;8.63;4.40;;;4.20;96.50;;;;;;4919181;29;20536;-73
2022/01/15 11:46:48;;;;;;;9.10;4.37;;;4.20;96.70;;;;;;4916767;29;20463;-72
2022/01/15 11:49:33;;;;;;;14.27;5.67;;;4.20;96.60;;;;;;4908876;29;20423;-72
2022/01/15 11:52:11;;;;;;;7.87;4.93;;;4.20;96.20;;;;;;4907024;29;20928;-73
2022/01/15 11:54:38;;;;;;;8.83;5.67;;;4.10;96.20;;;;;;4923956;29;20453;-72
2022/01/15 11:57:29;;;;;;;6.97;5.30;;;4.00;97.00;;;;;;4922858;29;20435;-74
2022/01/15 11:59:56;;;;;;;10.50;6.10;;;4.00;96.70;;;;;;4919252;29;20427;-72
2022/01/15 12:02:54;;;;;;;7.53;4.77;;;4.00;96.90;;;;;;4918450;29;20439;-72
2022/01/15 12:05:23;;;;;;;8.93;5.40;;;4.00;97.20;;;;;;4922134;29;20916;-72
2022/01/15 12:08:01;;;;;;;7.57;5.03;;;4.00;97.30;;;;;;4915160;29;20426;-72
2022/01/15 12:10:49;;;;;;;6.13;3.50;;;4.10;97.30;;;;;;4909516;29;20518;-73
2022/01/15 12:13:18;;;;;;;6.20;4.10;;;4.10;96.70;;;;;;4899242;29;20477;-72
2022/01/15 12:15:45;;;;;;;8.93;5.40;;;4.10;96.80;;;;;;4899351;29;20427;-73
2022/01/15 12:18:19;;;;;;;6.87;4.60;;;4.10;96.90;;;;;;4918801;29;20484;-72
2022/01/15 12:20:46;;;;;;;8.43;5.07;;;4.10;96.90;;;;;;4900702;29;20521;-72
2022/01/15 12:23:18;;;;;;;7.00;4.13;;;4.10;96.60;;;;;;4904986;29;20475;-73
2022/01/15 12:25:44;;;;;;;7.00;4.73;;;4.10;97.00;;;;;;4904218;29;20470;-72
2022/01/15 12:28:13;;;;;;;7.93;5.00;;;4.10;97.10;;;;;;4903931;29;20506;-72
2022/01/15 12:30:42;;;;;;;11.67;6.70;;;4.10;96.70;;;;;;4906846;29;20447;-71
2022/01/15 12:33:13;;;;;;;29.07;16.53;;;4.10;97.30;;;;;;4905282;29;20873;-72
2022/01/15 12:35:44;;;;;;;6.53;4.57;;;4.20;97.90;;;;;;4880434;29;20435;-72
2022/01/15 12:38:25;;;;;;;6.60;4.43;;;4.20;96.50;;;;;;4901491;29;20453;-71
2022/01/15 12:41:11;;;;;;;9.00;6.43;;;4.30;97.00;;;;;;4916635;29;20435;-73
2022/01/15 12:43:41;;;;;;;7.07;3.90;;;4.40;96.80;;;;;;4891911;29;20510;-72
2022/01/15 12:46:16;;;;;;;8.37;4.80;;;4.40;96.30;;;;;;4931312;29;20982;-72
2022/01/15 12:48:44;;;;;;;10.17;4.80;;;4.40;96.40;;;;;;4936527;29;20420;-73
2022/01/15 12:51:22;;;;;;;8.40;4.87;;;4.40;96.50;;;;;;4935722;29;20836;-71
2022/01/15 12:53:53;;;;;;;8.23;5.40;;;4.30;96.30;;;;;;4935998;29;20488;-71
2022/01/15 12:56:19;;;;;;;7.23;5.27;;;4.30;96.60;;;;;;4918244;29;20429;-72
2022/01/15 12:58:46;;;;;;;14.53;8.80;;;4.30;96.70;;;;;;4936572;29;20417;-71
2022/01/15 13:01:18;;;;;;;7.17;5.17;;;4.40;97.30;;;;;;4919519;29;20178;-73
2022/01/15 13:03:45;;;;;;;10.03;4.50;;;4.40;96.60;;;;;;4919665;29;20464;-71
2022/01/15 13:06:11;;;;;;;7.10;4.93;;;4.40;96.50;;;;;;4936050;29;20564;-73
2022/01/15 13:08:42;;;;;;;8.30;4.70;;;4.40;96.40;;;;;;4936807;29;20873;-73
2022/01/15 13:13:54;;;;;;;7.47;4.67;;;4.30;96.40;;;;;;4937553;29;20477;-71